Time;durP1;ratioP1;P1;durP2;ratioP2;P2;SDS_P1;SDS_P2;PMS_P1;PMS_P2;Temp;Humidity;BMP_temperature;BMP_pressure;BME280_temperature;BME280_humidity;BME280_pressure;Samples;Min_cycle;Max_cycle;Signal;HPM_P1;HPM_P2
2022/10/20 00:00:47;;;;;;;26.98;11.15;;;;;;;13.18;71.76;99452.06;5174229;28;20651;-74
2022/10/20 00:03:38;;;;;;;21.98;12.20;;;;;;;13.23;71.60;99449.78;5183248;28;20088;-75
2022/10/20 00:06:31;;;;;;;21.00;11.63;;;;;;;12.81;73.50;99446.78;5183063;28;20056;-74
2022/10/20 00:09:21;;;;;;;20.58;11.18;;;;;;;13.06;72.55;99438.09;5182111;28;20054;-75
2022/10/20 00:12:11;;;;;;;26.00;11.55;;;;;;;13.05;72.63;99433.78;5175092;28;20076;-74
2022/10/20 00:15:01;;;;;;;22.13;11.18;;;;;;;13.04;72.37;99434.75;5192750;28;20046;-75
2022/10/20 00:17:51;;;;;;;24.25;11.20;;;;;;;13.03;71.81;99417.09;5190030;28;20054;-75
2022/10/20 00:20:41;;;;;;;31.25;11.57;;;;;;;13.20;71.63;99427.94;5182724;28;20112;-75
2022/10/20 00:23:31;;;;;;;25.85;12.00;;;;;;;13.23;71.69;99423.16;5152456;28;20155;-75
2022/10/20 00:26:24;;;;;;;20.88;11.25;;;;;;;13.16;72.08;99430.88;5182949;28;20131;-74
2022/10/20 00:29:14;;;;;;;25.15;11.05;;;;;;;13.23;71.17;99427.63;5186419;28;20229;-75
2022/10/20 00:32:04;;;;;;;21.55;11.38;;;;;;;13.03;71.62;99429.56;5196760;28;20651;-74
2022/10/20 00:34:55;;;;;;;21.67;10.70;;;;;;;13.17;71.78;99443.22;5196374;28;20038;-75
2022/10/20 00:37:45;;;;;;;18.80;10.85;;;;;;;13.15;70.32;99429.22;5182475;28;20143;-75
2022/10/20 00:40:34;;;;;;;19.10;10.82;;;;;;;13.08;71.28;99437.97;5182304;28;20440;-75
2022/10/20 00:43:41;;;;;;;21.08;10.93;;;;;;;13.09;71.09;99429.81;5181622;28;20085;-75
2022/10/20 00:46:39;;;;;;;19.05;10.73;;;;;;;12.86;72.01;99434.72;5200627;28;20046;-75
2022/10/20 00:49:29;;;;;;;21.90;10.05;;;;;;;13.00;70.75;99422.72;5161527;28;20125;-75
2022/10/20 00:52:20;;;;;;;23.38;10.77;;;;;;;12.90;72.03;99429.91;5175006;28;20054;-75
2022/10/20 00:55:14;;;;;;;19.38;10.55;;;;;;;12.83;72.04;99427.00;5182242;28;20057;-75
2022/10/20 00:58:04;;;;;;;19.77;10.63;;;;;;;13.03;70.52;99401.13;5187992;28;20527;-75
2022/10/20 01:00:56;;;;;;;23.90;10.95;;;;;;;13.03;70.63;99392.31;5182037;28;20093;-75
2022/10/20 01:03:49;;;;;;;20.50;10.25;;;;;;;13.06;70.56;99405.31;5197264;28;20071;-75
2022/10/20 01:06:39;;;;;;;22.23;10.23;;;;;;;13.11;70.33;99395.03;5186138;28;20054;-75
2022/10/20 01:09:30;;;;;;;21.55;10.50;;;;;;;13.05;70.35;99385.03;5183653;28;20068;-74
2022/10/20 01:12:35;;;;;;;19.27;10.45;;;;;;;12.96;70.27;99381.44;5166248;28;20061;-76
2022/10/20 01:15:44;;;;;;;22.00;10.43;;;;;;;12.88;70.82;99378.66;5181158;28;20046;-75
2022/10/20 01:18:40;;;;;;;22.73;10.93;;;;;;;12.80;70.09;99359.94;5166781;28;20633;-75
2022/10/20 01:21:40;;;;;;;29.77;11.20;;;;;;;12.86;70.93;99370.84;5168166;28;20504;-76
2022/10/20 01:24:53;;;;;;;21.83;10.70;;;;;;;12.77;70.90;99360.25;5197502;28;20531;-75
2022/10/20 01:27:47;;;;;;;20.23;11.10;;;;;;;12.81;70.96;99366.94;5181849;28;20144;-76
2022/10/20 01:30:44;;;;;;;22.08;12.55;;;;;;;12.73;70.86;99354.38;5181690;28;20432;-75
2022/10/20 01:33:43;;;;;;;18.27;10.25;;;;;;;12.67;71.32;99353.16;5174667;28;20061;-74
2022/10/20 01:37:08;;;;;;;20.33;10.98;;;;;;;12.74;70.47;99360.53;5146930;28;20523;-75
2022/10/20 01:40:06;;;;;;;17.92;10.32;;;;;;;12.64;70.73;99349.94;5158546;28;20045;-73
2022/10/20 01:43:00;;;;;;;17.58;10.70;;;;;;;12.67;70.99;99354.97;5183703;28;20116;-74
2022/10/20 01:45:51;;;;;;;;;;;;;;;12.58;71.06;99359.38;5182407;28;20429;-74
2022/10/20 01:48:42;;;;;;;20.55;11.05;;;;;;;12.56;70.72;99358.69;5181562;28;19972;-74
2022/10/20 01:51:33;;;;;;;19.70;10.82;;;;;;;12.41;70.17;99345.00;5182176;28;20192;-74
2022/10/20 01:54:25;;;;;;;17.98;9.80;;;;;;;12.38;70.78;99353.31;5173495;28;20052;-73
2022/10/20 01:58:17;;;;;;;18.80;9.95;;;;;;;12.44;70.34;99349.22;5164051;28;20119;-74
2022/10/20 02:01:25;;;;;;;18.60;10.05;;;;;;;12.27;70.33;99344.66;5137608;28;20062;-74
2022/10/20 02:04:20;;;;;;;23.13;10.05;;;;;;;12.22;70.27;99330.00;5156822;28;20056;-74
2022/10/20 02:07:18;;;;;;;21.85;9.60;;;;;;;12.25;70.18;99328.00;5171154;28;20065;-73
2022/10/20 02:10:11;;;;;;;17.73;9.63;;;;;;;12.13;70.49;99327.38;5176211;28;20093;-73
2022/10/20 02:13:05;;;;;;;17.17;9.10;;;;;;;11.97;70.44;99312.03;5184775;28;20072;-73
2022/10/20 02:15:57;;;;;;;;;;;;;;;11.99;69.99;99328.69;5172498;28;20517;-73
2022/10/20 02:18:47;;;;;;;14.82;8.40;;;;;;;11.81;70.66;99325.06;5184815;28;19922;-73
2022/10/20 02:21:38;;;;;;;15.77;8.93;;;;;;;11.85;70.57;99331.78;5170222;28;20523;-73
2022/10/20 02:24:32;;;;;;;18.70;10.27;;;;;;;11.92;70.71;99328.44;5194826;28;20053;-73
2022/10/20 02:27:28;;;;;;;19.83;9.60;;;;;;;11.94;70.26;99314.97;5165753;28;20057;-73
2022/10/20 02:30:18;;;;;;;16.23;9.43;;;;;;;11.75;70.57;99310.50;5176602;28;20119;-73
2022/10/20 02:33:10;;;;;;;20.15;9.10;;;;;;;11.70;70.55;99308.31;5170100;28;20393;-73
2022/10/20 02:36:04;;;;;;;13.25;7.97;;;;;;;11.69;70.41;99311.94;5191898;28;20136;-73
2022/10/20 02:38:54;;;;;;;18.58;9.13;;;;;;;11.48;70.74;99295.34;5189678;28;20734;-73
2022/10/20 02:41:44;;;;;;;17.92;9.65;;;;;;;11.49;70.55;99283.75;5202506;28;20076;-73
2022/10/20 02:44:34;;;;;;;17.98;9.38;;;;;;;11.56;70.67;99308.75;5184388;28;20049;-73
2022/10/20 02:47:24;;;;;;;21.90;9.93;;;;;;;11.45;70.70;99272.56;5184407;28;20056;-73
2022/10/20 02:50:15;;;;;;;21.02;11.15;;;;;;;11.59;70.64;99281.06;5166965;28;20419;-73
2022/10/20 02:53:05;;;;;;;18.50;10.57;;;;;;;11.47;71.49;99301.63;5169675;28;20056;-73
2022/10/20 02:55:56;;;;;;;18.70;9.93;;;;;;;11.40;70.97;99298.72;5184433;28;20132;-73
2022/10/20 02:58:46;;;;;;;17.63;9.63;;;;;;;11.35;70.93;99302.75;5167382;28;20053;-73
2022/10/20 03:01:36;;;;;;;20.48;10.90;;;;;;;11.28;71.51;99303.31;5195136;28;20056;-73
2022/10/20 03:04:26;;;;;;;25.73;10.60;;;;;;;11.40;70.96;99300.53;5197418;28;20523;-73
2022/10/20 03:07:16;;;;;;;20.30;10.73;;;;;;;11.42;70.83;99306.53;5184271;28;20127;-73
2022/10/20 03:10:07;;;;;;;17.83;10.02;;;;;;;11.32;70.97;99316.31;5183381;28;20420;-73
2022/10/20 03:12:58;;;;;;;18.67;9.60;;;;;;;11.35;70.69;99313.38;5168621;28;20153;-73
2022/10/20 03:15:47;;;;;;;24.33;10.98;;;;;;;11.53;71.43;99307.22;5202262;28;20057;-73
2022/10/20 03:18:37;;;;;;;25.77;11.18;;;;;;;11.50;71.82;99286.25;5169065;28;20049;-73
2022/10/20 03:21:27;;;;;;;22.98;11.70;;;;;;;11.68;71.54;99301.44;5183310;28;20050;-73
2022/10/20 03:24:17;;;;;;;19.65;11.43;;;;;;;11.48;71.97;99288.19;5176313;28;20546;-73
2022/10/20 03:27:07;;;;;;;21.75;10.57;;;;;;;11.13;72.01;99245.53;5171215;28;20547;-73
2022/10/20 03:29:57;;;;;;;20.27;12.00;;;;;;;11.48;72.24;99288.19;5194842;28;20390;-73
2022/10/20 03:32:47;;;;;;;20.52;10.93;;;;;;;11.47;71.89;99296.31;5183333;28;20507;-73
2022/10/20 03:35:37;;;;;;;21.02;11.00;;;;;;;11.41;70.92;99292.41;5183592;28;20073;-73
2022/10/20 03:38:27;;;;;;;23.75;10.90;;;;;;;11.36;71.16;99302.63;5184169;28;20061;-73
2022/10/20 03:41:17;;;;;;;22.80;10.63;;;;;;;11.42;71.89;99304.72;5182513;28;20046;-74
2022/10/20 03:44:09;;;;;;;20.65;10.10;;;;;;;11.25;71.22;99282.38;5183845;28;20065;-75
2022/10/20 03:46:59;;;;;;;22.73;11.20;;;;;;;11.33;72.16;99297.59;5155228;28;20046;-74
2022/10/20 03:49:49;;;;;;;23.08;11.75;;;;;;;11.37;72.04;99296.34;5168311;28;20547;-75
2022/10/20 03:52:39;;;;;;;21.40;12.32;;;;;;;11.31;72.08;99274.81;5183011;28;20087;-75
2022/10/20 03:55:28;;;;;;;24.17;11.77;;;;;;;11.51;71.96;99285.28;5183065;28;20061;-75
2022/10/20 03:58:19;;;;;;;27.92;12.35;;;;;;;11.64;71.06;99266.38;5192012;28;20681;-73
2022/10/20 04:01:16;;;;;;;21.40;11.68;;;;;;;11.50;72.48;99280.94;5175839;28;20077;-72
2022/10/20 04:04:06;;;;;;;28.58;13.07;;;;;;;11.62;71.87;99271.00;5163545;28;20112;-74
2022/10/20 04:06:56;;;;;;;26.85;12.68;;;;;;;11.55;72.37;99264.56;5170394;28;20108;-73
2022/10/20 04:09:46;;;;;;;29.33;12.93;;;;;;;11.59;72.79;99262.47;5174658;28;20421;-73
2022/10/20 04:12:36;;;;;;;26.75;13.13;;;;;;;11.55;72.55;99266.41;5191762;28;20065;-75
2022/10/20 04:15:27;;;;;;;28.10;13.73;;;;;;;11.46;72.27;99253.00;5187315;28;20119;-74
2022/10/20 04:18:17;;;;;;;31.08;15.50;;;;;;;11.50;72.54;99250.91;5181893;28;20579;-75
2022/10/20 04:21:07;;;;;;;29.40;13.05;;;;;;;11.62;72.09;99260.38;5167874;28;20460;-75
2022/10/20 04:23:57;;;;;;;25.25;12.88;;;;;;;11.47;72.88;99248.53;5182864;28;20054;-74
2022/10/20 04:26:47;;;;;;;28.10;12.90;;;;;;;11.48;72.97;99244.88;5177679;28;20433;-74
2022/10/20 04:29:42;;;;;;;26.45;13.82;;;;;;;11.65;72.67;99252.09;5187765;28;20146;-74
2022/10/20 04:32:32;;;;;;;25.60;13.40;;;;;;;11.58;72.75;99256.31;5183784;28;20478;-74
2022/10/20 04:35:23;;;;;;;23.13;11.88;;;;;;;11.61;72.34;99264.00;5180165;28;20085;-74
2022/10/20 04:38:13;;;;;;;26.23;12.48;;;;;;;11.62;72.56;99259.53;5160732;28;20104;-74
2022/10/20 04:41:04;;;;;;;25.50;12.60;;;;;;;11.69;72.28;99250.03;5163909;28;20116;-75
2022/10/20 04:43:54;;;;;;;26.15;13.60;;;;;;;11.73;72.23;99257.53;5171836;28;20053;-75
2022/10/20 04:46:44;;;;;;;26.85;13.13;;;;;;;11.73;72.68;99249.56;5188920;28;20057;-74
2022/10/20 04:49:33;;;;;;;231.93;93.97;;;;;;;11.82;72.11;99253.19;5171159;28;20104;-77
2022/10/20 04:52:24;;;;;;;34.20;15.70;;;;;;;11.93;72.15;99237.09;5182122;28;20523;-75
2022/10/20 04:55:14;;;;;;;29.48;13.45;;;;;;;12.01;72.53;99246.97;5167313;28;20623;-74
2022/10/20 04:58:04;;;;;;;35.35;14.73;;;;;;;12.06;72.46;99231.44;5187821;28;20507;-75
2022/10/20 05:01:03;;;;;;;32.20;14.93;;;;;;;12.14;72.36;99238.66;5194302;28;20072;-73
2022/10/20 05:03:53;;;;;;;30.88;14.95;;;;;;;12.27;71.81;99238.31;5184180;28;20497;-74
2022/10/20 05:06:44;;;;;;;36.50;15.35;;;;;;;12.23;72.98;99235.97;5180258;28;20073;-74
2022/10/20 05:09:34;;;;;;;42.90;16.23;;;;;;;12.28;73.11;99227.53;5182027;28;20068;-72
2022/10/20 05:12:24;;;;;;;41.00;16.80;;;;;;;12.35;73.27;99233.94;5181653;28;20065;-75
2022/10/20 05:15:14;;;;;;;44.00;17.27;;;;;;;12.37;73.66;99239.94;5193307;28;20050;-75
2022/10/20 05:18:04;;;;;;;37.92;17.10;;;;;;;12.51;74.13;99221.78;5137482;28;20149;-75
2022/10/20 05:20:55;;;;;;;48.70;18.67;;;;;;;12.65;73.40;99221.28;5160368;28;20489;-76
2022/10/20 05:24:00;;;;;;;40.53;18.73;;;;;;;12.69;73.68;99206.69;5182023;28;20416;-75
2022/10/20 05:26:52;;;;;;;52.45;19.38;;;;;;;12.79;73.49;99206.63;5162488;28;20436;-75
2022/10/20 05:29:42;;;;;;;45.35;18.48;;;;;;;12.86;73.59;99208.50;5187157;28;20134;-75
2022/10/20 05:32:32;;;;;;;41.42;19.23;;;;;;;12.90;72.80;99207.19;5175147;28;20057;-75
2022/10/20 05:35:22;;;;;;;40.85;18.08;;;;;;;13.10;71.83;99199.03;5165923;28;20068;-74
2022/10/20 05:38:12;;;;;;;40.72;17.27;;;;;;;12.93;73.00;99190.94;5188203;28;20128;-72
2022/10/20 05:41:10;;;;;;;43.92;19.10;;;;;;;12.96;72.92;99194.28;5163209;28;20046;-72
2022/10/20 05:44:03;;;;;;;41.08;17.55;;;;;;;12.97;72.63;99196.78;5193874;28;20055;-73
2022/10/20 05:46:53;;;;;;;41.03;18.48;;;;;;;12.92;72.97;99197.25;5176749;28;20076;-75
2022/10/20 05:49:43;;;;;;;38.42;16.77;;;;;;;12.97;72.82;99196.78;5170458;28;20053;-71
2022/10/20 05:52:34;;;;;;;33.85;16.08;;;;;;;12.92;72.49;99183.09;5183174;28;20519;-71
2022/10/20 05:55:25;;;;;;;41.78;16.05;;;;;;;12.95;72.30;99185.47;5178613;28;20053;-71
2022/10/20 05:58:15;;;;;;;30.33;15.40;;;;;;;13.05;71.91;99183.53;5178733;28;20056;-71
2022/10/20 06:01:19;;;;;;;32.03;15.23;;;;;;;13.07;71.57;99184.19;5182184;28;20061;-71
2022/10/20 06:04:09;;;;;;;31.45;15.00;;;;;;;13.09;71.09;99173.41;5178460;28;20085;-72
2022/10/20 06:07:00;;;;;;;35.22;14.82;;;;;;;12.99;72.33;99172.69;5175853;28;20057;-72
2022/10/20 06:09:50;;;;;;;34.80;15.25;;;;;;;12.98;72.30;99169.19;5172999;28;20151;-72
2022/10/20 06:12:40;;;;;;;31.17;15.45;;;;;;;12.96;72.49;99163.16;5166177;28;20068;-72
2022/10/20 06:15:31;;;;;;;36.97;14.93;;;;;;;13.05;72.52;99164.91;5179682;28;20595;-72
2022/10/20 06:18:21;;;;;;;28.75;13.85;;;;;;;13.09;72.37;99190.22;5173054;28;20089;-72
2022/10/20 06:21:22;;;;;;;26.52;14.20;;;;;;;13.14;72.28;99198.59;5159571;28;20052;-72
2022/10/20 06:24:13;;;;;;;31.17;15.15;;;;;;;13.29;71.92;99179.41;5171636;28;20456;-72
2022/10/20 06:27:03;;;;;;;32.65;14.80;;;;;;;13.36;71.62;99191.09;5183473;28;20056;-71
2022/10/20 06:29:53;;;;;;;29.65;15.05;;;;;;;13.30;71.88;99189.06;5198722;28;20453;-72
2022/10/20 06:32:43;;;;;;;29.90;15.18;;;;;;;13.36;72.42;99201.75;5169057;28;20454;-72
2022/10/20 06:35:33;;;;;;;31.02;15.38;;;;;;;13.40;71.76;99201.28;5187892;28;22882;-72
2022/10/20 06:38:23;;;;;;;31.33;14.75;;;;;;;13.39;72.05;99199.63;5204244;28;20049;-71
2022/10/20 06:41:15;;;;;;;28.50;14.32;;;;;;;13.45;71.96;99195.50;5187157;28;20243;-72
2022/10/20 06:44:06;;;;;;;28.90;14.77;;;;;;;13.52;72.11;99198.38;5190789;28;20415;-71
2022/10/20 06:46:56;;;;;;;29.17;14.05;;;;;;;13.60;71.27;99193.91;5189976;28;20133;-71
2022/10/20 06:49:49;;;;;;;29.33;13.50;;;;;;;13.59;71.72;99205.56;5190115;28;20053;-71
2022/10/20 06:52:39;;;;;;;25.52;12.90;;;;;;;13.67;71.52;99195.94;5191280;28;20041;-73
2022/10/20 06:55:29;;;;;;;21.40;12.43;;;;;;;13.74;71.54;99191.63;5183232;28;20094;-74
2022/10/20 06:58:19;;;;;;;21.55;11.98;;;;;;;13.81;71.64;99193.53;5183495;28;20059;-71
2022/10/20 07:01:27;;;;;;;24.30;13.32;;;;;;;13.90;71.38;99207.69;5148981;28;20466;-72
2022/10/20 07:04:17;;;;;;;25.55;14.05;;;;;;;13.92;71.36;99216.38;5159125;28;20416;-73
2022/10/20 07:07:07;;;;;;;25.27;13.43;;;;;;;13.85;71.62;99200.19;5175946;28;20069;-73
2022/10/20 07:09:57;;;;;;;25.83;13.40;;;;;;;14.17;70.07;99214.66;5161938;28;20175;-71
2022/10/20 07:12:47;;;;;;;27.02;14.18;;;;;;;14.32;69.96;99212.19;5172865;28;20053;-74
2022/10/20 07:15:37;;;;;;;30.90;13.80;;;;;;;14.49;69.59;99205.06;5190432;28;20050;-71
2022/10/20 07:18:28;;;;;;;24.48;13.38;;;;;;;14.71;68.63;99193.81;5179064;28;20045;-71
2022/10/20 07:21:21;;;;;;;26.33;12.60;;;;;;;15.17;68.32;99204.81;5186889;28;20047;-71
2022/10/20 07:24:11;;;;;;;20.10;11.20;;;;;;;15.07;68.35;99192.66;5176056;28;20060;-71
2022/10/20 07:27:01;;;;;;;24.67;11.32;;;;;;;15.47;68.36;99187.25;5177633;28;20042;-71
2022/10/20 07:29:51;;;;;;;21.50;11.63;;;;;;;15.89;66.52;99204.88;5174930;28;20094;-71
2022/10/20 07:32:42;;;;;;;22.50;11.23;;;;;;;16.56;65.41;99215.06;5171909;28;20184;-71
2022/10/20 07:35:33;;;;;;;17.60;11.00;;;;;;;16.96;64.26;99215.00;5180979;28;20060;-71
2022/10/20 07:38:24;;;;;;;17.38;9.93;;;;;;;17.40;61.80;99208.91;5176989;28;20577;-71
2022/10/20 07:41:14;;;;;;;14.13;8.52;;;;;;;17.33;62.34;99187.38;5177806;28;20069;-71
2022/10/20 07:44:05;;;;;;;16.45;8.98;;;;;;;17.02;62.81;99174.09;5182135;28;20139;-71
2022/10/20 07:46:55;;;;;;;15.32;8.85;;;;;;;17.26;61.66;99191.81;5181691;28;20144;-71
2022/10/20 07:49:45;;;;;;;14.80;8.43;;;;;;;17.30;62.69;99195.78;5181750;28;20555;-71
2022/10/20 07:52:35;;;;;;;14.85;8.65;;;;;;;17.06;63.23;99196.84;5169035;28;20053;-71
2022/10/20 07:55:26;;;;;;;15.90;8.90;;;;;;;17.44;61.56;99194.13;5176079;28;20073;-71
2022/10/20 07:58:32;;;;;;;14.10;8.23;;;;;;;17.49;61.78;99199.78;5176982;28;20057;-71
2022/10/20 08:01:23;;;;;;;13.05;7.78;;;;;;;17.20;62.00;99196.03;5181671;28;20054;-71
2022/10/20 08:04:13;;;;;;;15.25;8.43;;;;;;;17.17;62.98;99193.72;5157134;28;20054;-70
2022/10/20 08:07:04;;;;;;;14.13;8.15;;;;;;;17.57;61.27;99191.66;5176165;28;20057;-71
2022/10/20 08:09:54;;;;;;;11.50;8.07;;;;;;;17.75;61.34;99184.09;5186559;22;20053;-71
2022/10/20 08:12:44;;;;;;;13.18;7.60;;;;;;;18.04;60.55;99185.09;5176884;28;20498;-71
2022/10/20 08:15:33;;;;;;;11.13;7.63;;;;;;;18.50;59.04;99185.63;5178943;28;20136;-71
2022/10/20 08:18:33;;;;;;;17.10;7.55;;;;;;;18.86;58.50;99173.22;5167830;28;20061;-71
2022/10/20 08:21:23;;;;;;;10.68;7.10;;;;;;;18.89;59.53;99183.56;5166555;28;20415;-71
2022/10/20 08:24:13;;;;;;;9.77;7.05;;;;;;;18.91;59.43;99186.91;5180474;28;20062;-71
2022/10/20 08:27:04;;;;;;;11.68;7.15;;;;;;;19.30;58.58;99188.25;5173677;28;20048;-71
2022/10/20 08:29:53;;;;;;;10.15;6.50;;;;;;;19.77;57.12;99181.34;5181344;28;20061;-71
2022/10/20 08:33:01;;;;;;;10.70;7.20;;;;;;;19.84;56.28;99166.09;5181989;28;20087;-71
2022/10/20 08:35:52;;;;;;;9.90;6.82;;;;;;;19.66;57.13;99155.84;5170188;28;20452;-71
2022/10/20 08:38:42;;;;;;;8.57;5.30;;;;;;;19.25;56.76;99154.72;5181155;28;20063;-71
2022/10/20 08:41:37;;;;;;;6.35;5.10;;;;;;;19.11;57.96;99161.03;5167991;28;20053;-71
2022/10/20 08:44:48;;;;;;;6.00;4.55;;;;;;;19.19;58.54;99154.69;5182040;28;20196;-71
2022/10/20 08:47:38;;;;;;;6.35;4.38;;;;;;;19.33;57.56;99158.28;5165429;28;20119;-71
2022/10/20 08:50:31;;;;;;;6.30;5.03;;;;;;;19.11;57.70;99158.34;5179410;28;20176;-71
2022/10/20 08:53:23;;;;;;;6.43;4.32;;;;;;;19.09;58.05;99167.63;5174136;28;20512;-71
2022/10/20 08:56:14;;;;;;;8.00;4.32;;;;;;;19.24;57.70;99171.88;5181637;28;20092;-71
2022/10/20 08:59:28;;;;;;;7.28;5.35;;;;;;;19.65;56.71;99192.66;5181892;28;20065;-71
2022/10/20 09:02:19;;;;;;;6.43;5.05;;;;;;;19.55;56.59;99176.03;5189686;28;20074;-71
2022/10/20 09:05:12;;;;;;;8.75;5.18;;;;;;;20.29;55.81;99172.69;5191253;28;20059;-70
2022/10/20 09:08:07;;;;;;;6.63;4.68;;;;;;;20.53;53.42;99160.56;5177567;28;20053;-71
2022/10/20 09:10:58;;;;;;;8.90;4.68;;;;;;;20.63;53.72;99184.44;5166401;28;20050;-71
2022/10/20 09:13:49;;;;;;;6.15;4.35;;;;;;;20.85;52.76;99193.16;5182730;28;20116;-71
2022/10/20 09:16:41;;;;;;;8.45;4.80;;;;;;;20.96;53.12;99173.69;5180639;28;20050;-71
2022/10/20 09:19:57;;;;;;;7.32;4.57;;;;;;;20.91;53.84;99167.25;5180027;28;20072;-71
2022/10/20 09:22:47;;;;;;;6.28;3.80;;;;;;;21.39;51.98;99176.00;5192173;28;20120;-71
2022/10/20 09:25:39;;;;;;;7.55;4.43;;;;;;;21.77;51.32;99176.09;5182069;28;20404;-70
2022/10/20 09:28:29;;;;;;;7.30;4.40;;;;;;;21.54;51.72;99170.34;5180779;28;20052;-70
2022/10/20 09:31:34;;;;;;;6.20;4.32;;;;;;;21.55;51.79;99169.31;5180328;28;20608;-70
2022/10/20 09:34:31;;;;;;;4.85;3.95;;;;;;;21.87;52.49;99172.97;5190479;28;20064;-70
2022/10/20 09:37:22;;;;;;;6.75;3.80;;;;;;;21.90;52.67;99177.13;5166696;28;20053;-70
2022/10/20 09:40:15;;;;;;;5.65;4.03;;;;;;;21.18;52.23;99165.38;5181343;28;20053;-70
2022/10/20 09:43:13;;;;;;;6.20;4.07;;;;;;;21.49;53.36;99173.69;5181361;28;20076;-70
2022/10/20 09:46:08;;;;;;;10.43;4.47;;;;;;;21.49;52.66;99167.44;5181642;28;20420;-70
2022/10/20 09:48:58;;;;;;;5.25;3.90;;;;;;;21.67;51.24;99172.19;5181133;28;20542;-71
2022/10/20 09:51:48;;;;;;;6.40;3.97;;;;;;;21.27;51.86;99200.03;5165734;28;20109;-71
2022/10/20 09:54:38;;;;;;;5.40;3.30;;;;;;;20.88;53.40;99192.75;5181021;28;20416;-71
2022/10/20 09:57:29;;;;;;;7.10;3.70;;;;;;;21.28;51.28;99190.06;5166602;28;20598;-71
2022/10/20 10:00:44;;;;;;;6.15;3.35;;;;;;;22.19;50.78;99195.53;5180805;28;20437;-71
2022/10/20 10:03:44;;;;;;;6.50;4.07;;;;;;;21.57;49.96;99183.44;5182779;28;20203;-71
2022/10/20 10:06:37;;;;;;;5.15;3.95;;;;;;;20.33;54.41;99181.19;5181371;28;20072;-71
2022/10/20 10:09:36;;;;;;;6.57;3.65;;;;;;;20.13;54.41;99190.03;5166756;28;20526;-71
2022/10/20 10:12:29;;;;;;;6.55;3.47;;;;;;;20.29;55.39;99191.53;5180497;28;20069;-71
2022/10/20 10:15:24;;;;;;;9.45;3.90;;;;;;;20.31;54.90;99197.56;5181050;28;20065;-71
2022/10/20 10:18:21;;;;;;;5.90;4.00;;;;;;;19.70;57.02;99198.31;5180231;28;20104;-71
2022/10/20 10:21:17;;;;;;;5.72;4.20;;;;;;;19.92;56.59;99195.50;5182466;28;20057;-71
2022/10/20 10:24:29;;;;;;;5.32;3.80;;;;;;;20.01;55.63;99182.72;5184665;28;20159;-71
2022/10/20 10:27:26;;;;;;;5.53;3.90;;;;;;;19.98;55.76;99189.34;5184269;28;20626;-71
2022/10/20 10:30:26;;;;;;;8.32;4.28;;;;;;;20.09;56.61;99174.47;5184390;28;20439;-71
2022/10/20 10:33:27;;;;;;;9.65;4.25;;;;;;;19.88;57.88;99178.94;5184755;28;20276;-72
2022/10/20 10:36:31;;;;;;;8.15;4.78;;;;;;;19.74;56.29;99193.34;5195693;28;20050;-72
2022/10/20 10:39:22;;;;;;;10.60;4.32;;;;;;;19.67;56.23;99181.72;5184389;28;20159;-72
2022/10/20 10:42:40;;;;;;;7.53;4.18;;;;;;;19.93;57.58;99192.63;5183800;28;20120;-72
2022/10/20 10:45:46;;;;;;;4.80;3.60;;;;;;;19.86;57.12;99197.13;5170120;28;20093;-72
2022/10/20 10:48:45;;;;;;;6.03;3.65;;;;;;;19.81;56.98;99177.25;5183773;28;20128;-72
2022/10/20 10:51:41;;;;;;;8.48;4.53;;;;;;;19.66;57.60;99180.03;5170116;28;20060;-72
2022/10/20 10:54:42;;;;;;;5.22;3.80;;;;;;;19.73;57.64;99182.78;5169378;28;20546;-71
2022/10/20 10:58:06;;;;;;;6.25;4.00;;;;;;;19.80;57.01;99179.13;5184253;28;20510;-72
2022/10/20 11:01:07;;;;;;;7.35;4.55;;;;;;;19.67;57.28;99170.97;5186080;28;20426;-72
2022/10/20 11:04:16;;;;;;;6.47;3.72;;;;;;;19.52;58.67;99164.84;5184475;28;20120;-72
2022/10/20 11:07:12;;;;;;;9.77;4.50;;;;;;;19.54;57.50;99154.72;5183702;28;20057;-72
2022/10/20 11:10:19;;;;;;;5.72;4.40;;;;;;;19.37;59.29;99127.28;5183382;28;20054;-72
2022/10/20 11:13:22;;;;;;;8.20;4.53;;;;;;;19.23;60.01;99115.63;5183286;28;20060;-71
2022/10/20 11:16:33;;;;;;;10.98;4.47;;;;;;;19.43;58.77;99148.00;5182034;28;20691;-72
2022/10/20 11:19:38;;;;;;;7.97;4.55;;;;;;;19.73;56.47;99145.13;5181137;28;20045;-72
2022/10/20 11:22:43;;;;;;;9.13;3.97;;;;;;;19.28;59.78;99144.63;5182162;28;20504;-72
2022/10/20 11:25:47;;;;;;;7.55;4.00;;;;;;;19.41;58.11;99136.66;5181946;28;20049;-72
2022/10/20 11:28:45;;;;;;;15.60;6.22;;;;;;;19.40;59.52;99135.81;5182884;28;20056;-72
2022/10/20 11:31:47;;;;;;;9.98;4.15;;;;;;;19.54;59.40;99125.97;5170672;28;20396;-72
2022/10/20 11:34:49;;;;;;;4.85;3.80;;;;;;;19.24;58.70;99125.38;5194699;28;20466;-72
2022/10/20 11:38:14;;;;;;;7.80;3.88;;;;;;;19.30;60.01;99111.13;5177809;28;20182;-72
2022/10/20 11:41:15;;;;;;;6.82;4.18;;;;;;;19.29;59.81;99122.91;5182328;28;20056;-72
2022/10/20 11:44:27;;;;;;;7.32;4.10;;;;;;;19.57;59.36;99139.03;5182869;28;20187;-72
2022/10/20 11:47:25;;;;;;;6.72;3.90;;;;;;;19.40;59.23;99119.69;5182831;28;20089;-72
2022/10/20 11:50:17;;;;;;;8.02;4.13;;;;;;;19.31;59.34;99115.47;5165197;28;20042;-72
2022/10/20 11:53:10;;;;;;;7.32;3.85;;;;;;;18.67;60.73;99113.69;5182623;28;20503;-72
2022/10/20 11:56:31;;;;;;;6.45;3.88;;;;;;;18.93;60.38;99101.56;5182183;28;20085;-72
2022/10/20 11:59:47;;;;;;;5.53;3.55;;;;;;;19.16;60.10;99099.44;5166840;28;20058;-72
2022/10/20 12:02:51;;;;;;;6.28;3.80;;;;;;;18.94;60.41;99100.53;5165912;28;20057;-72
2022/10/20 12:06:10;;;;;;;6.40;4.13;;;;;;;19.20;60.26;99078.38;5176326;28;20058;-72
2022/10/20 12:09:34;;;;;;;8.00;4.38;;;;;;;19.10;60.40;99064.47;5181332;28;20463;-72
2022/10/20 12:12:40;;;;;;;10.27;3.85;;;;;;;19.00;60.97;99081.75;5180229;28;20049;-73
2022/10/20 12:15:30;;;;;;;9.85;4.20;;;;;;;19.00;60.11;99067.50;5173823;28;20046;-71
2022/10/20 12:18:28;;;;;;;11.07;3.67;;;;;;;19.08;60.11;99086.19;5178642;28;20425;-71
2022/10/20 12:21:56;;;;;;;5.78;3.90;;;;;;;19.34;59.19;99080.13;5178185;28;20050;-72
2022/10/20 12:24:49;;;;;;;5.00;3.78;;;;;;;19.00;60.21;99070.19;5179130;28;20061;-72
2022/10/20 12:27:39;;;;;;;8.05;3.45;;;;;;;18.99;60.31;99068.53;5180069;28;20077;-71
2022/10/20 12:30:38;;;;;;;6.93;4.03;;;;;;;19.27;59.79;99068.53;5178856;28;20057;-72
2022/10/20 12:33:40;;;;;;;6.22;4.00;;;;;;;19.38;59.41;99084.09;5179059;28;20065;-72
2022/10/20 12:36:34;;;;;;;9.93;3.63;;;;;;;19.21;60.81;99085.44;5163176;28;20061;-72
2022/10/20 12:39:28;;;;;;;5.57;3.72;;;;;;;19.59;59.29;99075.09;5177774;28;20060;-71
2022/10/20 12:42:27;;;;;;;5.68;3.80;;;;;;;19.70;59.92;99069.19;5179825;28;20052;-71
2022/10/20 12:45:17;;;;;;;7.32;4.07;;;;;;;19.61;58.08;99064.13;5179441;28;20048;-70
2022/10/20 12:48:17;;;;;;;9.73;4.30;;;;;;;19.53;59.72;99065.13;5163040;28;20104;-69
2022/10/20 12:51:17;;;;;;;7.95;4.10;;;;;;;19.61;60.10;99056.06;5178313;28;20056;-70
2022/10/20 12:54:22;;;;;;;9.20;4.00;;;;;;;19.53;60.05;99072.34;5180986;28;20088;-69
2022/10/20 12:57:30;;;;;;;7.97;4.05;;;;;;;19.59;59.74;99077.78;5179072;28;20046;-71
2022/10/20 13:00:23;;;;;;;6.80;4.20;;;;;;;19.62;61.06;99100.75;5180484;28;20046;-71
2022/10/20 13:03:35;;;;;;;7.57;4.22;;;;;;;19.80;59.13;99084.09;5179178;28;20535;-70
2022/10/20 13:06:29;;;;;;;5.85;3.78;;;;;;;19.85;58.94;99071.69;5181216;28;20076;-73
2022/10/20 13:09:21;;;;;;;11.60;3.95;;;;;;;19.54;60.86;99061.41;5165511;28;20193;-73
2022/10/20 13:12:25;;;;;;;8.45;4.05;;;;;;;19.42;62.19;99044.19;5179259;28;20432;-73
2022/10/20 13:15:19;;;;;;;7.13;4.60;;;;;;;19.02;64.34;99046.66;5181313;28;20129;-73
2022/10/20 13:18:12;;;;;;;11.07;4.43;;;;;;;19.00;65.38;99070.19;5180676;28;20416;-73
2022/10/20 13:21:31;;;;;;;9.52;4.57;;;;;;;19.15;64.23;99052.09;5174287;28;20535;-73
2022/10/20 13:24:30;;;;;;;6.95;4.22;;;;;;;19.09;65.25;99030.56;5165895;28;20131;-73
2022/10/20 13:27:22;;;;;;;8.38;4.22;;;;;;;18.56;66.44;99012.19;5179212;28;20053;-73
2022/10/20 13:30:19;;;;;;;6.82;4.90;;;;;;;18.45;66.37;98991.25;5180533;28;20072;-73
2022/10/20 13:33:24;;;;;;;6.82;4.35;;;;;;;18.50;67.31;98978.88;5165878;28;20504;-73